Terminal Aerodrome Forecast
Issued by NWS

Current Version | Previous Version | Graphics & Text | Print | Product List | Glossary On
Versions: 1 2 3 4 5 6 7 8 9 10 11 12 13 14 15 16 17 18 19 20
772
FTUS41 KILN 262343
TAFLCK
TAF
KLCK 262343Z 2700/2724 VRB03KT P6SM FEW040 BKN250
     FM271000 20004KT P6SM VCTS SCT040CB BKN200
     FM271400 20008KT P6SM SHRA VCTS SCT040CB OVC080
     FM272200 22006KT P6SM SHRA OVC028=

USA.gov is the U.S. government's official web portal to all federal, state and local government web resources and services.